sensor_id;sensor_type;location;lat;lon;timestamp;P1;durP1;ratioP1;P2;durP2;ratioP2
549;SDS011;20066;48.764;9.176;2023-12-28T00:00:34;4.43;;;2.50;;
549;SDS011;20066;48.764;9.176;2023-12-28T00:03:02;3.23;;;3.00;;
549;SDS011;20066;48.764;9.176;2023-12-28T00:05:30;3.40;;;2.23;;
549;SDS011;20066;48.764;9.176;2023-12-28T00:07:58;3.80;;;2.40;;
549;SDS011;20066;48.764;9.176;2023-12-28T00:10:27;3.25;;;2.60;;
549;SDS011;20066;48.764;9.176;2023-12-28T00:12:55;3.83;;;2.20;;
549;SDS011;20066;48.764;9.176;2023-12-28T00:15:24;3.80;;;3.08;;
549;SDS011;20066;48.764;9.176;2023-12-28T00:17:52;4.30;;;2.33;;
549;SDS011;20066;48.764;9.176;2023-12-28T00:20:21;6.10;;;2.73;;
549;SDS011;20066;48.764;9.176;2023-12-28T00:22:48;5.70;;;3.10;;
549;SDS011;20066;48.764;9.176;2023-12-28T00:25:16;4.20;;;2.72;;
549;SDS011;20066;48.764;9.176;2023-12-28T00:27:44;3.97;;;2.45;;
549;SDS011;20066;48.764;9.176;2023-12-28T00:30:13;4.00;;;2.20;;
549;SDS011;20066;48.764;9.176;2023-12-28T00:32:45;3.50;;;2.50;;
549;SDS011;20066;48.764;9.176;2023-12-28T00:35:13;3.47;;;2.15;;
549;SDS011;20066;48.764;9.176;2023-12-28T00:37:41;5.18;;;2.50;;
549;SDS011;20066;48.764;9.176;2023-12-28T00:40:10;3.55;;;2.05;;
549;SDS011;20066;48.764;9.176;2023-12-28T00:42:38;3.53;;;2.15;;
549;SDS011;20066;48.764;9.176;2023-12-28T00:45:07;3.78;;;2.40;;
549;SDS011;20066;48.764;9.176;2023-12-28T00:47:36;3.50;;;2.30;;
549;SDS011;20066;48.764;9.176;2023-12-28T00:50:05;5.75;;;2.50;;
549;SDS011;20066;48.764;9.176;2023-12-28T00:52:34;6.00;;;2.40;;
549;SDS011;20066;48.764;9.176;2023-12-28T00:55:02;4.53;;;3.25;;
549;SDS011;20066;48.764;9.176;2023-12-28T00:57:30;5.10;;;2.60;;
549;SDS011;20066;48.764;9.176;2023-12-28T00:59:58;4.80;;;2.50;;
549;SDS011;20066;48.764;9.176;2023-12-28T01:02:26;5.13;;;2.92;;
549;SDS011;20066;48.764;9.176;2023-12-28T01:04:54;6.45;;;2.22;;
549;SDS011;20066;48.764;9.176;2023-12-28T01:07:24;4.65;;;2.60;;
549;SDS011;20066;48.764;9.176;2023-12-28T01:09:51;3.30;;;2.60;;
549;SDS011;20066;48.764;9.176;2023-12-28T01:12:19;4.53;;;2.70;;
549;SDS011;20066;48.764;9.176;2023-12-28T01:14:47;5.20;;;2.80;;
549;SDS011;20066;48.764;9.176;2023-12-28T01:17:15;4.50;;;2.60;;
549;SDS011;20066;48.764;9.176;2023-12-28T01:19:45;5.20;;;2.85;;
549;SDS011;20066;48.764;9.176;2023-12-28T01:22:13;5.95;;;3.00;;
549;SDS011;20066;48.764;9.176;2023-12-28T01:24:45;3.95;;;2.67;;
549;SDS011;20066;48.764;9.176;2023-12-28T01:27:16;3.63;;;2.33;;
549;SDS011;20066;48.764;9.176;2023-12-28T01:29:44;5.18;;;2.50;;
549;SDS011;20066;48.764;9.176;2023-12-28T01:32:12;3.95;;;3.08;;
549;SDS011;20066;48.764;9.176;2023-12-28T01:34:39;4.68;;;2.63;;
549;SDS011;20066;48.764;9.176;2023-12-28T01:37:08;4.03;;;2.58;;
549;SDS011;20066;48.764;9.176;2023-12-28T01:39:36;3.20;;;2.25;;
549;SDS011;20066;48.764;9.176;2023-12-28T01:42:06;4.95;;;2.50;;
549;SDS011;20066;48.764;9.176;2023-12-28T01:44:33;5.32;;;2.65;;
549;SDS011;20066;48.764;9.176;2023-12-28T01:47:02;3.45;;;2.42;;
549;SDS011;20066;48.764;9.176;2023-12-28T01:49:33;7.57;;;2.83;;
549;SDS011;20066;48.764;9.176;2023-12-28T01:52:03;5.65;;;2.85;;
549;SDS011;20066;48.764;9.176;2023-12-28T01:54:33;3.97;;;2.58;;
549;SDS011;20066;48.764;9.176;2023-12-28T01:57:01;7.00;;;2.72;;
549;SDS011;20066;48.764;9.176;2023-12-28T01:59:32;4.47;;;2.90;;
549;SDS011;20066;48.764;9.176;2023-12-28T02:02:00;7.53;;;3.05;;
549;SDS011;20066;48.764;9.176;2023-12-28T02:04:28;7.82;;;2.85;;
549;SDS011;20066;48.764;9.176;2023-12-28T02:06:57;7.45;;;3.50;;
549;SDS011;20066;48.764;9.176;2023-12-28T02:09:25;5.97;;;2.88;;
549;SDS011;20066;48.764;9.176;2023-12-28T02:11:53;4.22;;;2.88;;
549;SDS011;20066;48.764;9.176;2023-12-28T02:14:22;3.80;;;2.45;;
549;SDS011;20066;48.764;9.176;2023-12-28T02:16:52;3.65;;;2.70;;
549;SDS011;20066;48.764;9.176;2023-12-28T02:19:31;5.30;;;3.42;;
549;SDS011;20066;48.764;9.176;2023-12-28T02:22:02;6.05;;;3.70;;
549;SDS011;20066;48.764;9.176;2023-12-28T02:24:31;4.28;;;2.38;;
549;SDS011;20066;48.764;9.176;2023-12-28T02:27:00;4.40;;;3.42;;
549;SDS011;20066;48.764;9.176;2023-12-28T02:29:28;7.50;;;2.53;;
549;SDS011;20066;48.764;9.176;2023-12-28T02:31:58;4.22;;;3.35;;
549;SDS011;20066;48.764;9.176;2023-12-28T02:34:34;6.90;;;3.85;;
549;SDS011;20066;48.764;9.176;2023-12-28T02:37:07;5.60;;;3.60;;
549;SDS011;20066;48.764;9.176;2023-12-28T02:39:36;4.80;;;3.30;;
549;SDS011;20066;48.764;9.176;2023-12-28T02:42:07;8.98;;;4.45;;
549;SDS011;20066;48.764;9.176;2023-12-28T02:44:35;6.55;;;3.67;;
549;SDS011;20066;48.764;9.176;2023-12-28T02:47:03;6.18;;;3.60;;
549;SDS011;20066;48.764;9.176;2023-12-28T02:49:31;9.13;;;3.33;;
549;SDS011;20066;48.764;9.176;2023-12-28T02:51:59;5.07;;;3.38;;
549;SDS011;20066;48.764;9.176;2023-12-28T02:54:27;5.30;;;2.63;;
549;SDS011;20066;48.764;9.176;2023-12-28T02:56:55;5.13;;;2.97;;
549;SDS011;20066;48.764;9.176;2023-12-28T02:59:24;5.03;;;2.90;;
549;SDS011;20066;48.764;9.176;2023-12-28T03:01:52;4.07;;;2.25;;
549;SDS011;20066;48.764;9.176;2023-12-28T03:04:20;3.85;;;2.60;;
549;SDS011;20066;48.764;9.176;2023-12-28T03:06:47;5.55;;;2.80;;
549;SDS011;20066;48.764;9.176;2023-12-28T03:09:15;7.68;;;3.13;;
549;SDS011;20066;48.764;9.176;2023-12-28T03:11:43;6.05;;;2.90;;
549;SDS011;20066;48.764;9.176;2023-12-28T03:14:11;3.45;;;2.20;;
549;SDS011;20066;48.764;9.176;2023-12-28T03:16:41;5.60;;;3.50;;
549;SDS011;20066;48.764;9.176;2023-12-28T03:19:08;3.70;;;2.70;;
549;SDS011;20066;48.764;9.176;2023-12-28T03:21:38;4.05;;;2.50;;
549;SDS011;20066;48.764;9.176;2023-12-28T03:24:06;5.05;;;2.80;;
549;SDS011;20066;48.764;9.176;2023-12-28T03:26:37;3.78;;;2.78;;
549;SDS011;20066;48.764;9.176;2023-12-28T03:29:05;3.60;;;2.30;;
549;SDS011;20066;48.764;9.176;2023-12-28T03:31:33;6.13;;;2.70;;
549;SDS011;20066;48.764;9.176;2023-12-28T03:34:02;7.05;;;3.20;;
549;SDS011;20066;48.764;9.176;2023-12-28T03:36:30;3.70;;;2.75;;
549;SDS011;20066;48.764;9.176;2023-12-28T03:38:58;4.70;;;2.83;;
549;SDS011;20066;48.764;9.176;2023-12-28T03:41:26;4.47;;;3.17;;
549;SDS011;20066;48.764;9.176;2023-12-28T03:43:54;6.05;;;3.30;;
549;SDS011;20066;48.764;9.176;2023-12-28T03:46:22;3.63;;;2.60;;
549;SDS011;20066;48.764;9.176;2023-12-28T03:48:50;5.68;;;3.05;;
549;SDS011;20066;48.764;9.176;2023-12-28T03:51:20;4.55;;;2.70;;
549;SDS011;20066;48.764;9.176;2023-12-28T03:53:48;5.50;;;2.55;;
549;SDS011;20066;48.764;9.176;2023-12-28T03:56:20;4.25;;;2.55;;
549;SDS011;20066;48.764;9.176;2023-12-28T03:58:49;4.78;;;2.80;;
549;SDS011;20066;48.764;9.176;2023-12-28T04:01:17;4.50;;;2.53;;
549;SDS011;20066;48.764;9.176;2023-12-28T04:03:45;4.80;;;2.70;;
549;SDS011;20066;48.764;9.176;2023-12-28T04:06:14;3.90;;;2.85;;
549;SDS011;20066;48.764;9.176;2023-12-28T04:08:43;4.30;;;2.83;;
549;SDS011;20066;48.764;9.176;2023-12-28T04:11:11;5.93;;;3.17;;
549;SDS011;20066;48.764;9.176;2023-12-28T04:13:39;3.50;;;2.15;;
549;SDS011;20066;48.764;9.176;2023-12-28T04:16:07;3.95;;;2.70;;
549;SDS011;20066;48.764;9.176;2023-12-28T04:18:36;10.13;;;2.80;;
549;SDS011;20066;48.764;9.176;2023-12-28T04:21:04;5.95;;;3.25;;
549;SDS011;20066;48.764;9.176;2023-12-28T04:23:35;6.72;;;3.10;;
549;SDS011;20066;48.764;9.176;2023-12-28T04:26:05;5.10;;;2.90;;
549;SDS011;20066;48.764;9.176;2023-12-28T04:28:33;7.68;;;3.60;;
549;SDS011;20066;48.764;9.176;2023-12-28T04:31:02;4.35;;;3.10;;
549;SDS011;20066;48.764;9.176;2023-12-28T04:33:31;6.32;;;3.45;;
549;SDS011;20066;48.764;9.176;2023-12-28T04:36:00;4.35;;;2.75;;
549;SDS011;20066;48.764;9.176;2023-12-28T04:38:30;7.50;;;2.88;;
549;SDS011;20066;48.764;9.176;2023-12-28T04:40:58;5.03;;;2.58;;
549;SDS011;20066;48.764;9.176;2023-12-28T04:43:27;4.95;;;2.85;;
549;SDS011;20066;48.764;9.176;2023-12-28T04:45:55;3.70;;;2.50;;
549;SDS011;20066;48.764;9.176;2023-12-28T04:48:22;3.53;;;2.20;;
549;SDS011;20066;48.764;9.176;2023-12-28T04:50:50;4.47;;;2.63;;
549;SDS011;20066;48.764;9.176;2023-12-28T04:53:19;5.30;;;2.50;;
549;SDS011;20066;48.764;9.176;2023-12-28T04:55:47;3.90;;;2.55;;
549;SDS011;20066;48.764;9.176;2023-12-28T04:58:15;4.38;;;2.35;;
549;SDS011;20066;48.764;9.176;2023-12-28T05:00:44;7.10;;;2.83;;
549;SDS011;20066;48.764;9.176;2023-12-28T05:03:12;4.85;;;2.30;;
549;SDS011;20066;48.764;9.176;2023-12-28T05:05:41;4.53;;;2.60;;
549;SDS011;20066;48.764;9.176;2023-12-28T05:08:09;3.20;;;2.40;;
549;SDS011;20066;48.764;9.176;2023-12-28T05:10:37;4.05;;;2.70;;
549;SDS011;20066;48.764;9.176;2023-12-28T05:13:05;5.72;;;2.78;;
549;SDS011;20066;48.764;9.176;2023-12-28T05:15:33;4.07;;;2.45;;
549;SDS011;20066;48.764;9.176;2023-12-28T05:18:02;4.95;;;2.45;;
549;SDS011;20066;48.764;9.176;2023-12-28T05:20:31;3.83;;;2.50;;
549;SDS011;20066;48.764;9.176;2023-12-28T05:22:59;6.10;;;2.90;;
549;SDS011;20066;48.764;9.176;2023-12-28T05:25:27;4.57;;;2.33;;
549;SDS011;20066;48.764;9.176;2023-12-28T05:27:54;2.60;;;1.92;;
549;SDS011;20066;48.764;9.176;2023-12-28T05:30:23;4.97;;;2.35;;
549;SDS011;20066;48.764;9.176;2023-12-28T05:32:51;4.10;;;2.33;;
549;SDS011;20066;48.764;9.176;2023-12-28T05:35:20;4.20;;;2.20;;
549;SDS011;20066;48.764;9.176;2023-12-28T05:37:48;4.57;;;2.67;;
549;SDS011;20066;48.764;9.176;2023-12-28T05:40:16;5.88;;;2.20;;
549;SDS011;20066;48.764;9.176;2023-12-28T05:42:44;5.10;;;2.40;;
549;SDS011;20066;48.764;9.176;2023-12-28T05:45:12;4.20;;;2.70;;
549;SDS011;20066;48.764;9.176;2023-12-28T05:47:40;5.63;;;3.00;;
549;SDS011;20066;48.764;9.176;2023-12-28T05:50:08;5.53;;;3.10;;
549;SDS011;20066;48.764;9.176;2023-12-28T05:52:38;3.78;;;2.28;;
549;SDS011;20066;48.764;9.176;2023-12-28T05:55:06;3.60;;;2.50;;
549;SDS011;20066;48.764;9.176;2023-12-28T05:57:35;5.13;;;2.15;;
549;SDS011;20066;48.764;9.176;2023-12-28T06:00:03;5.03;;;3.13;;
549;SDS011;20066;48.764;9.176;2023-12-28T06:02:33;5.10;;;1.90;;
549;SDS011;20066;48.764;9.176;2023-12-28T06:05:01;3.00;;;2.10;;
549;SDS011;20066;48.764;9.176;2023-12-28T06:07:29;3.60;;;2.20;;
549;SDS011;20066;48.764;9.176;2023-12-28T06:09:58;3.28;;;2.28;;
549;SDS011;20066;48.764;9.176;2023-12-28T06:12:26;5.13;;;2.15;;
549;SDS011;20066;48.764;9.176;2023-12-28T06:14:55;3.63;;;2.40;;
549;SDS011;20066;48.764;9.176;2023-12-28T06:17:22;3.58;;;2.13;;
549;SDS011;20066;48.764;9.176;2023-12-28T06:19:51;3.75;;;1.90;;
549;SDS011;20066;48.764;9.176;2023-12-28T06:22:19;2.85;;;1.90;;
549;SDS011;20066;48.764;9.176;2023-12-28T06:24:47;2.73;;;2.03;;
549;SDS011;20066;48.764;9.176;2023-12-28T06:27:16;6.80;;;2.27;;
549;SDS011;20066;48.764;9.176;2023-12-28T06:29:44;3.50;;;2.00;;
549;SDS011;20066;48.764;9.176;2023-12-28T06:32:12;4.95;;;2.10;;
549;SDS011;20066;48.764;9.176;2023-12-28T06:34:40;2.92;;;2.00;;
549;SDS011;20066;48.764;9.176;2023-12-28T06:37:08;4.63;;;2.37;;
549;SDS011;20066;48.764;9.176;2023-12-28T06:39:36;3.87;;;2.07;;
549;SDS011;20066;48.764;9.176;2023-12-28T06:42:04;3.70;;;2.20;;
549;SDS011;20066;48.764;9.176;2023-12-28T06:44:34;2.13;;;1.47;;
549;SDS011;20066;48.764;9.176;2023-12-28T06:47:02;2.87;;;1.70;;
549;SDS011;20066;48.764;9.176;2023-12-28T06:49:30;3.17;;;2.10;;
549;SDS011;20066;48.764;9.176;2023-12-28T06:51:58;3.80;;;1.80;;
549;SDS011;20066;48.764;9.176;2023-12-28T06:54:26;3.67;;;2.13;;
549;SDS011;20066;48.764;9.176;2023-12-28T06:56:54;3.17;;;2.00;;
549;SDS011;20066;48.764;9.176;2023-12-28T06:59:22;5.70;;;2.60;;
549;SDS011;20066;48.764;9.176;2023-12-28T07:01:51;14.67;;;2.83;;
549;SDS011;20066;48.764;9.176;2023-12-28T07:04:19;6.23;;;2.33;;
549;SDS011;20066;48.764;9.176;2023-12-28T07:06:47;3.53;;;2.03;;
549;SDS011;20066;48.764;9.176;2023-12-28T07:09:15;6.57;;;2.13;;
549;SDS011;20066;48.764;9.176;2023-12-28T07:11:44;6.60;;;2.20;;
549;SDS011;20066;48.764;9.176;2023-12-28T07:14:12;4.35;;;2.00;;
549;SDS011;20066;48.764;9.176;2023-12-28T07:16:46;4.00;;;2.13;;
549;SDS011;20066;48.764;9.176;2023-12-28T07:19:17;3.40;;;2.20;;
549;SDS011;20066;48.764;9.176;2023-12-28T07:21:46;4.90;;;2.17;;
549;SDS011;20066;48.764;9.176;2023-12-28T07:24:15;3.50;;;2.10;;
549;SDS011;20066;48.764;9.176;2023-12-28T07:26:43;4.32;;;1.90;;
549;SDS011;20066;48.764;9.176;2023-12-28T07:29:20;4.40;;;2.28;;
549;SDS011;20066;48.764;9.176;2023-12-28T07:31:53;3.08;;;1.98;;
549;SDS011;20066;48.764;9.176;2023-12-28T07:34:25;5.35;;;2.45;;
549;SDS011;20066;48.764;9.176;2023-12-28T07:36:56;9.13;;;2.42;;
549;SDS011;20066;48.764;9.176;2023-12-28T07:39:26;4.35;;;2.25;;
549;SDS011;20066;48.764;9.176;2023-12-28T07:41:58;3.13;;;2.10;;
549;SDS011;20066;48.764;9.176;2023-12-28T07:44:27;4.03;;;2.03;;
549;SDS011;20066;48.764;9.176;2023-12-28T07:47:04;6.05;;;2.58;;
549;SDS011;20066;48.764;9.176;2023-12-28T07:49:39;3.58;;;2.40;;
549;SDS011;20066;48.764;9.176;2023-12-28T07:52:07;6.65;;;3.10;;
549;SDS011;20066;48.764;9.176;2023-12-28T07:54:35;7.65;;;4.18;;
549;SDS011;20066;48.764;9.176;2023-12-28T07:57:04;7.43;;;3.60;;
549;SDS011;20066;48.764;9.176;2023-12-28T07:59:38;7.45;;;3.15;;
549;SDS011;20066;48.764;9.176;2023-12-28T08:02:11;5.47;;;3.20;;
549;SDS011;20066;48.764;9.176;2023-12-28T08:04:43;11.95;;;4.72;;
549;SDS011;20066;48.764;9.176;2023-12-28T08:07:14;6.38;;;3.30;;
549;SDS011;20066;48.764;9.176;2023-12-28T08:09:48;5.00;;;2.80;;
549;SDS011;20066;48.764;9.176;2023-12-28T08:12:20;4.72;;;2.80;;
549;SDS011;20066;48.764;9.176;2023-12-28T08:14:49;9.53;;;3.43;;
549;SDS011;20066;48.764;9.176;2023-12-28T08:17:19;8.35;;;3.70;;
549;SDS011;20066;48.764;9.176;2023-12-28T08:19:52;7.65;;;3.80;;
549;SDS011;20066;48.764;9.176;2023-12-28T08:22:22;8.27;;;4.28;;
549;SDS011;20066;48.764;9.176;2023-12-28T08:24:50;9.43;;;3.95;;
549;SDS011;20066;48.764;9.176;2023-12-28T08:27:20;7.00;;;3.60;;
549;SDS011;20066;48.764;9.176;2023-12-28T08:29:49;6.22;;;3.40;;
549;SDS011;20066;48.764;9.176;2023-12-28T08:32:19;11.15;;;6.32;;
549;SDS011;20066;48.764;9.176;2023-12-28T08:34:47;12.02;;;4.93;;
549;SDS011;20066;48.764;9.176;2023-12-28T08:37:17;13.07;;;4.40;;
549;SDS011;20066;48.764;9.176;2023-12-28T08:39:48;10.30;;;5.60;;
549;SDS011;20066;48.764;9.176;2023-12-28T08:42:16;8.68;;;5.10;;
549;SDS011;20066;48.764;9.176;2023-12-28T08:44:48;12.63;;;3.72;;
549;SDS011;20066;48.764;9.176;2023-12-28T08:47:16;10.48;;;4.63;;
549;SDS011;20066;48.764;9.176;2023-12-28T08:49:45;6.78;;;4.07;;
549;SDS011;20066;48.764;9.176;2023-12-28T08:52:15;6.80;;;3.45;;
549;SDS011;20066;48.764;9.176;2023-12-28T08:54:46;12.10;;;5.32;;
549;SDS011;20066;48.764;9.176;2023-12-28T08:57:15;7.10;;;4.53;;
549;SDS011;20066;48.764;9.176;2023-12-28T09:00:01;7.72;;;4.07;;
549;SDS011;20066;48.764;9.176;2023-12-28T09:02:34;7.00;;;4.30;;
549;SDS011;20066;48.764;9.176;2023-12-28T09:05:11;10.55;;;3.90;;
549;SDS011;20066;48.764;9.176;2023-12-28T09:07:41;10.75;;;5.10;;
549;SDS011;20066;48.764;9.176;2023-12-28T09:10:12;8.98;;;3.85;;
549;SDS011;20066;48.764;9.176;2023-12-28T09:12:43;5.45;;;3.30;;
549;SDS011;20066;48.764;9.176;2023-12-28T09:15:11;7.90;;;4.22;;
549;SDS011;20066;48.764;9.176;2023-12-28T09:17:42;10.10;;;4.72;;
549;SDS011;20066;48.764;9.176;2023-12-28T09:20:13;8.23;;;4.30;;
549;SDS011;20066;48.764;9.176;2023-12-28T09:22:50;6.20;;;3.60;;
549;SDS011;20066;48.764;9.176;2023-12-28T09:25:27;5.43;;;3.38;;
549;SDS011;20066;48.764;9.176;2023-12-28T09:27:56;6.10;;;3.03;;
549;SDS011;20066;48.764;9.176;2023-12-28T09:30:27;8.65;;;4.20;;
549;SDS011;20066;48.764;9.176;2023-12-28T09:33:00;9.53;;;4.00;;
549;SDS011;20066;48.764;9.176;2023-12-28T09:35:31;5.65;;;3.20;;
549;SDS011;20066;48.764;9.176;2023-12-28T09:37:59;18.38;;;6.05;;
549;SDS011;20066;48.764;9.176;2023-12-28T09:40:31;8.18;;;2.70;;
549;SDS011;20066;48.764;9.176;2023-12-28T09:43:03;5.97;;;2.28;;
549;SDS011;20066;48.764;9.176;2023-12-28T09:45:42;7.93;;;2.20;;
549;SDS011;20066;48.764;9.176;2023-12-28T09:48:15;4.70;;;1.83;;
549;SDS011;20066;48.764;9.176;2023-12-28T09:50:54;6.47;;;2.20;;
549;SDS011;20066;48.764;9.176;2023-12-28T09:53:24;10.13;;;2.03;;
549;SDS011;20066;48.764;9.176;2023-12-28T09:55:58;4.47;;;1.70;;
549;SDS011;20066;48.764;9.176;2023-12-28T09:58:27;7.93;;;2.27;;
549;SDS011;20066;48.764;9.176;2023-12-28T10:01:00;3.60;;;2.07;;
549;SDS011;20066;48.764;9.176;2023-12-28T10:03:29;2.33;;;1.50;;
549;SDS011;20066;48.764;9.176;2023-12-28T10:05:59;6.97;;;2.10;;
549;SDS011;20066;48.764;9.176;2023-12-28T10:08:28;11.13;;;4.00;;
549;SDS011;20066;48.764;9.176;2023-12-28T10:10:59;7.60;;;3.47;;
549;SDS011;20066;48.764;9.176;2023-12-28T10:13:33;8.93;;;2.83;;
549;SDS011;20066;48.764;9.176;2023-12-28T10:16:04;6.30;;;2.40;;
549;SDS011;20066;48.764;9.176;2023-12-28T10:18:40;3.80;;;2.20;;
549;SDS011;20066;48.764;9.176;2023-12-28T10:21:15;7.73;;;2.87;;
549;SDS011;20066;48.764;9.176;2023-12-28T10:23:43;5.07;;;2.10;;
549;SDS011;20066;48.764;9.176;2023-12-28T10:26:17;5.07;;;2.23;;
549;SDS011;20066;48.764;9.176;2023-12-28T10:28:45;3.10;;;2.30;;
549;SDS011;20066;48.764;9.176;2023-12-28T10:31:14;3.73;;;2.10;;
549;SDS011;20066;48.764;9.176;2023-12-28T10:33:44;4.10;;;2.40;;
549;SDS011;20066;48.764;9.176;2023-12-28T10:36:20;5.20;;;2.10;;
549;SDS011;20066;48.764;9.176;2023-12-28T10:38:51;9.57;;;2.40;;
549;SDS011;20066;48.764;9.176;2023-12-28T10:41:28;4.00;;;2.70;;
549;SDS011;20066;48.764;9.176;2023-12-28T10:44:02;4.47;;;1.90;;
549;SDS011;20066;48.764;9.176;2023-12-28T10:46:38;4.10;;;1.70;;
549;SDS011;20066;48.764;9.176;2023-12-28T10:49:10;3.60;;;2.30;;
549;SDS011;20066;48.764;9.176;2023-12-28T10:51:55;4.37;;;2.30;;
549;SDS011;20066;48.764;9.176;2023-12-28T10:54:28;4.97;;;2.37;;
549;SDS011;20066;48.764;9.176;2023-12-28T10:57:09;7.97;;;3.23;;
549;SDS011;20066;48.764;9.176;2023-12-28T10:59:47;7.57;;;3.40;;
549;SDS011;20066;48.764;9.176;2023-12-28T11:02:37;10.37;;;4.67;;
549;SDS011;20066;48.764;9.176;2023-12-28T11:05:08;9.37;;;3.30;;
549;SDS011;20066;48.764;9.176;2023-12-28T11:07:43;2.80;;;1.97;;
549;SDS011;20066;48.764;9.176;2023-12-28T11:10:19;11.73;;;5.00;;
549;SDS011;20066;48.764;9.176;2023-12-28T11:15:44;7.97;;;4.00;;
549;SDS011;20066;48.764;9.176;2023-12-28T11:18:19;8.03;;;3.80;;
549;SDS011;20066;48.764;9.176;2023-12-28T11:20:51;10.97;;;4.70;;
549;SDS011;20066;48.764;9.176;2023-12-28T11:23:32;36.57;;;6.97;;
549;SDS011;20066;48.764;9.176;2023-12-28T11:26:20;3.80;;;2.43;;
549;SDS011;20066;48.764;9.176;2023-12-28T11:29:01;4.93;;;2.27;;
549;SDS011;20066;48.764;9.176;2023-12-28T11:31:34;3.70;;;2.17;;
549;SDS011;20066;48.764;9.176;2023-12-28T11:34:05;22.73;;;3.60;;
549;SDS011;20066;48.764;9.176;2023-12-28T11:36:41;5.60;;;2.53;;
549;SDS011;20066;48.764;9.176;2023-12-28T11:39:19;15.63;;;2.77;;
549;SDS011;20066;48.764;9.176;2023-12-28T11:42:00;5.53;;;2.07;;
549;SDS011;20066;48.764;9.176;2023-12-28T11:44:44;7.10;;;2.00;;
549;SDS011;20066;48.764;9.176;2023-12-28T11:47:20;4.40;;;2.00;;
549;SDS011;20066;48.764;9.176;2023-12-28T11:49:51;5.60;;;2.03;;
549;SDS011;20066;48.764;9.176;2023-12-28T11:52:30;3.40;;;1.70;;
549;SDS011;20066;48.764;9.176;2023-12-28T11:55:01;3.70;;;1.80;;
549;SDS011;20066;48.764;9.176;2023-12-28T11:57:34;3.23;;;1.60;;
549;SDS011;20066;48.764;9.176;2023-12-28T12:00:28;3.63;;;1.60;;
549;SDS011;20066;48.764;9.176;2023-12-28T12:02:56;2.37;;;1.63;;
549;SDS011;20066;48.764;9.176;2023-12-28T12:05:27;2.40;;;1.70;;
549;SDS011;20066;48.764;9.176;2023-12-28T12:07:57;9.00;;;1.93;;
549;SDS011;20066;48.764;9.176;2023-12-28T12:10:26;6.07;;;1.77;;
549;SDS011;20066;48.764;9.176;2023-12-28T12:13:13;2.30;;;1.67;;
549;SDS011;20066;48.764;9.176;2023-12-28T12:15:44;2.53;;;1.50;;
549;SDS011;20066;48.764;9.176;2023-12-28T12:18:23;2.97;;;1.60;;
549;SDS011;20066;48.764;9.176;2023-12-28T12:20:57;3.50;;;2.20;;
549;SDS011;20066;48.764;9.176;2023-12-28T12:23:27;3.93;;;1.97;;
549;SDS011;20066;48.764;9.176;2023-12-28T12:26:04;2.80;;;1.77;;
549;SDS011;20066;48.764;9.176;2023-12-28T12:28:36;2.70;;;1.70;;
549;SDS011;20066;48.764;9.176;2023-12-28T12:31:11;4.60;;;2.30;;
549;SDS011;20066;48.764;9.176;2023-12-28T12:33:40;3.47;;;1.90;;
549;SDS011;20066;48.764;9.176;2023-12-28T12:36:18;3.70;;;2.00;;
549;SDS011;20066;48.764;9.176;2023-12-28T12:38:48;4.40;;;1.80;;
549;SDS011;20066;48.764;9.176;2023-12-28T12:41:20;3.20;;;1.77;;
549;SDS011;20066;48.764;9.176;2023-12-28T12:43:49;2.60;;;2.10;;
549;SDS011;20066;48.764;9.176;2023-12-28T12:46:18;2.23;;;1.77;;
549;SDS011;20066;48.764;9.176;2023-12-28T12:48:53;3.77;;;1.97;;
549;SDS011;20066;48.764;9.176;2023-12-28T12:51:29;9.00;;;2.60;;
549;SDS011;20066;48.764;9.176;2023-12-28T12:54:02;3.60;;;2.20;;
549;SDS011;20066;48.764;9.176;2023-12-28T12:56:41;2.70;;;1.77;;
549;SDS011;20066;48.764;9.176;2023-12-28T12:59:15;34.57;;;5.27;;
549;SDS011;20066;48.764;9.176;2023-12-28T13:02:16;18.60;;;4.37;;
549;SDS011;20066;48.764;9.176;2023-12-28T13:04:45;9.30;;;2.37;;
549;SDS011;20066;48.764;9.176;2023-12-28T13:07:14;4.00;;;2.17;;
549;SDS011;20066;48.764;9.176;2023-12-28T13:09:43;3.47;;;2.00;;
549;SDS011;20066;48.764;9.176;2023-12-28T13:12:12;2.30;;;1.70;;
549;SDS011;20066;48.764;9.176;2023-12-28T13:14:40;3.90;;;2.20;;
549;SDS011;20066;48.764;9.176;2023-12-28T13:17:11;2.57;;;1.77;;
549;SDS011;20066;48.764;9.176;2023-12-28T13:19:40;3.03;;;1.77;;
549;SDS011;20066;48.764;9.176;2023-12-28T13:22:07;3.03;;;2.00;;
549;SDS011;20066;48.764;9.176;2023-12-28T13:24:35;2.27;;;1.80;;
549;SDS011;20066;48.764;9.176;2023-12-28T13:27:03;3.77;;;1.80;;
549;SDS011;20066;48.764;9.176;2023-12-28T13:29:32;9.67;;;2.17;;
549;SDS011;20066;48.764;9.176;2023-12-28T13:31:59;3.43;;;1.80;;
549;SDS011;20066;48.764;9.176;2023-12-28T13:34:27;3.40;;;2.00;;
549;SDS011;20066;48.764;9.176;2023-12-28T13:36:57;4.57;;;2.30;;
549;SDS011;20066;48.764;9.176;2023-12-28T13:39:26;6.93;;;2.03;;
549;SDS011;20066;48.764;9.176;2023-12-28T13:41:55;4.40;;;1.90;;
549;SDS011;20066;48.764;9.176;2023-12-28T13:44:23;3.27;;;1.77;;
549;SDS011;20066;48.764;9.176;2023-12-28T13:46:51;3.93;;;1.77;;
549;SDS011;20066;48.764;9.176;2023-12-28T13:49:20;3.10;;;1.77;;
549;SDS011;20066;48.764;9.176;2023-12-28T13:51:48;4.20;;;1.80;;
549;SDS011;20066;48.764;9.176;2023-12-28T13:54:19;3.40;;;2.00;;
549;SDS011;20066;48.764;9.176;2023-12-28T13:56:47;3.30;;;2.03;;
549;SDS011;20066;48.764;9.176;2023-12-28T13:59:16;6.50;;;2.60;;
549;SDS011;20066;48.764;9.176;2023-12-28T14:01:44;3.00;;;2.20;;
549;SDS011;20066;48.764;9.176;2023-12-28T14:04:13;4.00;;;2.30;;
549;SDS011;20066;48.764;9.176;2023-12-28T14:06:41;3.30;;;1.67;;
549;SDS011;20066;48.764;9.176;2023-12-28T14:09:09;3.00;;;1.77;;
549;SDS011;20066;48.764;9.176;2023-12-28T14:11:40;2.77;;;1.73;;
549;SDS011;20066;48.764;9.176;2023-12-28T14:14:08;3.00;;;1.70;;
549;SDS011;20066;48.764;9.176;2023-12-28T14:16:35;4.03;;;2.20;;
549;SDS011;20066;48.764;9.176;2023-12-28T14:19:04;5.50;;;2.60;;
549;SDS011;20066;48.764;9.176;2023-12-28T14:21:34;4.17;;;2.43;;
549;SDS011;20066;48.764;9.176;2023-12-28T14:24:03;2.90;;;1.90;;
549;SDS011;20066;48.764;9.176;2023-12-28T14:26:32;3.60;;;2.33;;
549;SDS011;20066;48.764;9.176;2023-12-28T14:29:02;4.13;;;2.10;;
549;SDS011;20066;48.764;9.176;2023-12-28T14:31:32;2.60;;;2.00;;
549;SDS011;20066;48.764;9.176;2023-12-28T14:34:00;3.70;;;2.30;;
549;SDS011;20066;48.764;9.176;2023-12-28T14:36:30;6.70;;;2.27;;
549;SDS011;20066;48.764;9.176;2023-12-28T14:39:00;6.47;;;2.50;;
549;SDS011;20066;48.764;9.176;2023-12-28T14:41:32;5.60;;;2.80;;
549;SDS011;20066;48.764;9.176;2023-12-28T14:44:02;4.27;;;2.63;;
549;SDS011;20066;48.764;9.176;2023-12-28T14:46:31;5.27;;;2.53;;
549;SDS011;20066;48.764;9.176;2023-12-28T14:48:59;5.03;;;1.90;;
549;SDS011;20066;48.764;9.176;2023-12-28T14:51:29;6.60;;;2.50;;
549;SDS011;20066;48.764;9.176;2023-12-28T14:53:57;3.33;;;2.10;;
549;SDS011;20066;48.764;9.176;2023-12-28T14:56:25;3.47;;;1.90;;
549;SDS011;20066;48.764;9.176;2023-12-28T14:59:07;3.57;;;2.33;;
549;SDS011;20066;48.764;9.176;2023-12-28T15:01:35;3.50;;;2.40;;
549;SDS011;20066;48.764;9.176;2023-12-28T15:04:03;4.23;;;2.03;;
549;SDS011;20066;48.764;9.176;2023-12-28T15:06:32;4.73;;;2.20;;
549;SDS011;20066;48.764;9.176;2023-12-28T15:09:00;5.20;;;2.40;;
549;SDS011;20066;48.764;9.176;2023-12-28T15:11:28;6.70;;;2.50;;
549;SDS011;20066;48.764;9.176;2023-12-28T15:14:14;4.37;;;2.47;;
549;SDS011;20066;48.764;9.176;2023-12-28T15:16:44;3.50;;;2.20;;
549;SDS011;20066;48.764;9.176;2023-12-28T15:19:12;3.13;;;2.10;;
549;SDS011;20066;48.764;9.176;2023-12-28T15:21:41;4.30;;;2.33;;
549;SDS011;20066;48.764;9.176;2023-12-28T15:24:09;6.00;;;2.50;;
549;SDS011;20066;48.764;9.176;2023-12-28T15:26:38;6.23;;;2.23;;
549;SDS011;20066;48.764;9.176;2023-12-28T15:29:06;3.60;;;2.00;;
549;SDS011;20066;48.764;9.176;2023-12-28T15:31:36;4.87;;;2.00;;
549;SDS011;20066;48.764;9.176;2023-12-28T15:34:04;4.07;;;2.20;;
549;SDS011;20066;48.764;9.176;2023-12-28T15:36:32;2.87;;;2.00;;